Time;durP1;ratioP1;P1;durP2;ratioP2;P2;SDS_P1;SDS_P2;PMS_P1;PMS_P2;Temp;Humidity;BMP_temperature;BMP_pressure;BME280_temperature;BME280_humidity;BME280_pressure;Samples;Min_cycle;Max_cycle;Signal;HPM_P1;HPM_P2
2021/09/02 00:00:14;;;;;;;30.98;19.75;;;;;;;;;;2080322;28;20181;-57
2021/09/02 00:01:15;;;;;;;24.60;18.42;;;;;;;;;;2083328;28;20648;-53
2021/09/02 00:02:15;;;;;;;26.05;17.70;;;;;;;;;;2081874;28;20168;-57
2021/09/02 00:03:15;;;;;;;26.10;16.95;;;;;;;;;;2080826;28;20689;-55
2021/09/02 00:04:16;;;;;;;31.13;18.83;;;;;;;;;;2069516;28;20702;-57
2021/09/02 00:05:16;;;;;;;25.08;18.90;;;;;;;;;;2077247;28;20168;-58
2021/09/02 00:06:16;;;;;;;29.25;19.23;;;;;;;;;;2076364;28;20165;-58
2021/09/02 00:07:19;;;;;;;29.75;18.08;;;;;;;;;;2081597;28;20176;-56
2021/09/02 00:08:20;;;;;;;24.50;18.20;;;;;;;;;;2081076;28;20252;-57
2021/09/02 00:09:20;;;;;;;26.88;18.02;;;;;;;;;;2081815;28;20195;-57
2021/09/02 00:10:20;;;;;;;24.40;17.27;;;;;;;;;;2081393;28;20179;-54
2021/09/02 00:11:20;;;;;;;26.38;18.55;;;;;;;;;;2081153;28;20175;-54
2021/09/02 00:12:21;;;;;;;24.02;17.58;;;;;;;;;;2081540;28;20188;-53
2021/09/02 00:13:21;;;;;;;23.65;17.85;;;;;;;;;;2080308;28;20230;-52
2021/09/02 00:14:21;;;;;;;23.85;17.80;;;;;;;;;;2078691;28;20180;-56
2021/09/02 00:15:21;;;;;;;28.77;18.10;;;;;;;;;;2081953;28;20183;-57
2021/09/02 00:16:22;;;;;;;25.67;18.92;;;;;;;;;;2081772;28;20182;-57
2021/09/02 00:17:22;;;;;;;27.30;18.60;;;;;;;;;;2080952;28;20243;-56
2021/09/02 00:18:22;;;;;;;35.45;19.42;;;;;;;;;;2081301;28;20180;-55
2021/09/02 00:19:22;;;;;;;27.45;19.25;;;;;;;;;;2073328;28;20191;-59
2021/09/02 00:20:23;;;;;;;25.65;18.45;;;;;;;;;;2073790;28;20177;-56
2021/09/02 00:21:23;;;;;;;31.08;18.73;;;;;;;;;;2080681;28;20175;-55
2021/09/02 00:22:23;;;;;;;27.88;18.85;;;;;;;;;;2074431;28;20183;-58
2021/09/02 00:23:23;;;;;;;26.50;18.23;;;;;;;;;;2074109;28;20196;-53
2021/09/02 00:24:24;;;;;;;31.63;19.30;;;;;;;;;;2074311;28;20199;-56
2021/09/02 00:25:24;;;;;;;30.05;19.83;;;;;;;;;;2074256;28;20725;-55
2021/09/02 00:26:24;;;;;;;41.67;24.60;;;;;;;;;;2065623;28;20190;-56
2021/09/02 00:27:25;;;;;;;34.58;21.17;;;;;;;;;;2065392;28;20173;-56
2021/09/02 00:28:26;;;;;;;28.50;19.52;;;;;;;;;;2073986;28;20200;-56
2021/09/02 00:29:26;;;;;;;29.33;19.50;;;;;;;;;;2074307;28;20169;-56
2021/09/02 00:30:26;;;;;;;31.50;18.48;;;;;;;;;;2081151;28;20227;-56
2021/09/02 00:31:26;;;;;;;29.10;18.45;;;;;;;;;;2080277;28;20164;-54
2021/09/02 00:32:27;;;;;;;30.20;20.05;;;;;;;;;;2069969;28;20187;-53
2021/09/02 00:33:27;;;;;;;31.10;20.13;;;;;;;;;;2073435;28;20189;-57
2021/09/02 00:34:27;;;;;;;33.08;20.60;;;;;;;;;;2074108;28;20166;-58
2021/09/02 00:35:27;;;;;;;28.83;19.70;;;;;;;;;;2074305;28;20526;-58
2021/09/02 00:36:28;;;;;;;28.20;20.05;;;;;;;;;;2076424;28;20176;-55
2021/09/02 00:37:28;;;;;;;30.25;19.98;;;;;;;;;;2082709;28;20229;-57
2021/09/02 00:38:28;;;;;;;24.85;19.15;;;;;;;;;;2082155;28;20527;-58
2021/09/02 00:39:28;;;;;;;24.60;19.25;;;;;;;;;;2082453;28;20255;-57
2021/09/02 00:40:29;;;;;;;27.77;19.30;;;;;;;;;;2082307;28;20184;-54
2021/09/02 00:41:29;;;;;;;29.55;19.63;;;;;;;;;;2079757;28;20188;-54
2021/09/02 00:42:29;;;;;;;29.77;19.70;;;;;;;;;;2074030;28;20197;-55
2021/09/02 00:43:39;;;;;;;29.85;19.13;;;;;;;;;;2076698;28;20743;-55
2021/09/02 00:44:43;;;;;;;31.90;18.40;;;;;;;;;;2082147;28;20173;-51
2021/09/02 00:45:44;;;;;;;32.10;18.50;;;;;;;;;;2080661;28;20180;-53
2021/09/02 00:46:44;;;;;;;26.95;19.67;;;;;;;;;;2073129;28;20219;-54
2021/09/02 00:47:44;;;;;;;25.55;18.05;;;;;;;;;;2056934;28;20210;-58
2021/09/02 00:48:46;;;;;;;30.73;18.50;;;;;;;;;;2064870;28;20188;-57
2021/09/02 00:49:46;;;;;;;25.92;18.38;;;;;;;;;;2073544;28;20157;-53
2021/09/02 00:50:47;;;;;;;22.65;16.63;;;;;;;;;;2082276;28;20215;-58
2021/09/02 00:51:47;;;;;;;22.75;15.70;;;;;;;;;;2077078;28;20173;-55
2021/09/02 00:52:48;;;;;;;24.88;18.40;;;;;;;;;;2073869;28;20184;-57
2021/09/02 00:53:49;;;;;;;23.27;16.33;;;;;;;;;;2074120;28;20181;-56
2021/09/02 00:54:51;;;;;;;21.80;16.38;;;;;;;;;;2074048;28;20173;-58
2021/09/02 00:55:51;;;;;;;27.40;17.80;;;;;;;;;;2075258;28;20598;-56
2021/09/02 00:56:51;;;;;;;22.00;17.02;;;;;;;;;;2079323;28;20191;-55
2021/09/02 00:57:52;;;;;;;22.42;15.88;;;;;;;;;;2074099;28;20195;-54
2021/09/02 00:58:52;;;;;;;22.50;16.35;;;;;;;;;;2065019;28;20270;-53
2021/09/02 00:59:57;;;;;;;24.63;15.95;;;;;;;;;;2065612;28;20177;-56
2021/09/02 01:00:57;;;;;;;20.90;14.40;;;;;;;;;;2066014;28;20228;-58
2021/09/02 01:01:57;;;;;;;18.10;15.07;;;;;;;;;;2078470;28;20188;-56
2021/09/02 01:02:57;;;;;;;20.80;15.20;;;;;;;;;;2081340;28;20206;-54
2021/09/02 01:04:00;;;;;;;21.23;14.90;;;;;;;;;;2070843;28;20199;-55
2021/09/02 01:05:01;;;;;;;18.50;15.10;;;;;;;;;;2075470;28;20230;-55
2021/09/02 01:06:01;;;;;;;16.73;13.90;;;;;;;;;;2076718;28;20779;-60
2021/09/02 01:07:02;;;;;;;18.33;13.82;;;;;;;;;;2076624;28;20613;-55
2021/09/02 01:08:03;;;;;;;20.25;13.88;;;;;;;;;;2080633;28;20211;-55
2021/09/02 01:09:04;;;;;;;20.25;14.77;;;;;;;;;;2082009;28;20346;-56
2021/09/02 01:10:05;;;;;;;19.38;15.15;;;;;;;;;;2081033;28;20179;-55
2021/09/02 01:11:06;;;;;;;20.25;15.45;;;;;;;;;;2074299;28;20188;-57
2021/09/02 01:12:26;;;;;;;21.52;14.50;;;;;;;;;;2074729;28;20638;-55
2021/09/02 01:13:26;;;;;;;21.95;14.73;;;;;;;;;;2074152;28;20189;-58
2021/09/02 01:14:26;;;;;;;18.95;14.80;;;;;;;;;;2074365;28;20189;-56
2021/09/02 01:15:27;;;;;;;25.52;15.45;;;;;;;;;;2074252;28;20565;-56
2021/09/02 01:16:27;;;;;;;20.20;16.08;;;;;;;;;;2076012;28;20185;-57
2021/09/02 01:17:28;;;;;;;21.63;15.65;;;;;;;;;;2080844;28;20168;-54
2021/09/02 01:18:28;;;;;;;25.40;16.40;;;;;;;;;;2073749;28;20173;-57
2021/09/02 01:19:29;;;;;;;20.15;15.10;;;;;;;;;;2065395;28;20197;-57
2021/09/02 01:20:30;;;;;;;29.13;16.45;;;;;;;;;;2072954;28;20207;-54
2021/09/02 01:21:32;;;;;;;24.90;15.73;;;;;;;;;;2082362;28;20175;-56
2021/09/02 01:22:32;;;;;;;18.83;15.25;;;;;;;;;;2082360;28;20168;-57
2021/09/02 01:23:37;;;;;;;25.58;16.88;;;;;;;;;;2082101;28;20770;-56
2021/09/02 01:24:37;;;;;;;20.73;16.25;;;;;;;;;;2080805;28;20261;-57
2021/09/02 01:25:42;;;;;;;24.17;15.68;;;;;;;;;;2073715;28;20252;-58
2021/09/02 01:26:42;;;;;;;21.75;16.52;;;;;;;;;;2081509;28;20177;-57
2021/09/02 01:27:43;;;;;;;25.27;17.40;;;;;;;;;;2076026;28;20184;-57
2021/09/02 01:28:44;;;;;;;24.05;17.27;;;;;;;;;;2080758;28;20213;-54
2021/09/02 01:29:48;;;;;;;23.80;17.08;;;;;;;;;;2077960;28;20177;-54
2021/09/02 01:30:48;;;;;;;26.02;16.98;;;;;;;;;;2081152;28;20172;-58
2021/09/02 01:31:48;;;;;;;27.80;17.52;;;;;;;;;;2076530;28;20169;-59
2021/09/02 01:32:49;;;;;;;29.58;18.02;;;;;;;;;;2073527;28;20176;-56
2021/09/02 01:33:50;;;;;;;26.33;17.35;;;;;;;;;;2073177;28;20183;-56
2021/09/02 01:34:52;;;;;;;27.45;18.25;;;;;;;;;;2073213;28;20641;-56
2021/09/02 01:35:52;;;;;;;28.27;18.05;;;;;;;;;;2073764;28;20165;-56
2021/09/02 01:36:53;;;;;;;31.73;19.08;;;;;;;;;;2073544;28;20719;-53
2021/09/02 01:37:53;;;;;;;27.70;18.52;;;;;;;;;;2074649;28;20200;-55
2021/09/02 01:38:53;;;;;;;28.00;18.80;;;;;;;;;;2073438;28;20187;-53
2021/09/02 01:39:53;;;;;;;30.52;18.27;;;;;;;;;;2065061;28;20182;-58
2021/09/02 01:40:53;;;;;;;28.92;18.77;;;;;;;;;;2064879;28;20658;-55
2021/09/02 01:41:54;;;;;;;29.70;18.88;;;;;;;;;;2073626;28;20680;-56
2021/09/02 01:42:54;;;;;;;35.10;19.45;;;;;;;;;;2073436;28;20677;-56
2021/09/02 01:43:54;;;;;;;29.40;18.58;;;;;;;;;;2073669;28;20208;-54
2021/09/02 01:44:58;;;;;;;30.33;19.85;;;;;;;;;;2073536;28;20181;-56
2021/09/02 01:45:58;;;;;;;30.60;19.27;;;;;;;;;;2064619;28;20177;-57
2021/09/02 01:46:58;;;;;;;30.17;18.83;;;;;;;;;;2065070;28;20177;-57
2021/09/02 01:47:59;;;;;;;27.92;19.27;;;;;;;;;;2073180;28;20219;-53
2021/09/02 01:48:59;;;;;;;27.85;19.42;;;;;;;;;;2064808;28;20180;-54
2021/09/02 01:50:06;;;;;;;28.48;20.27;;;;;;;;;;2065037;28;20212;-56
2021/09/02 01:51:06;;;;;;;29.33;20.80;;;;;;;;;;2072575;28;20715;-54
2021/09/02 01:52:06;;;;;;;32.35;19.88;;;;;;;;;;2074576;28;20156;-56
2021/09/02 01:53:09;;;;;;;31.70;20.83;;;;;;;;;;2077702;28;20188;-56
2021/09/02 01:54:09;;;;;;;30.33;21.40;;;;;;;;;;2080546;28;20172;-56
2021/09/02 01:55:10;;;;;;;33.35;19.70;;;;;;;;;;2080171;28;20188;-52
2021/09/02 01:56:10;;;;;;;35.60;23.00;;;;;;;;;;2077905;28;20180;-57
2021/09/02 01:57:10;;;;;;;32.58;21.08;;;;;;;;;;2071974;28;20246;-57
2021/09/02 01:58:11;;;;;;;28.58;20.08;;;;;;;;;;2076668;28;20179;-55
2021/09/02 01:59:11;;;;;;;31.40;22.05;;;;;;;;;;2077468;28;20589;-54
2021/09/02 02:00:13;;;;;;;34.55;21.08;;;;;;;;;;2078990;28;20230;-55
2021/09/02 02:01:13;;;;;;;30.90;21.08;;;;;;;;;;2080049;28;20675;-55
2021/09/02 02:02:13;;;;;;;34.10;20.90;;;;;;;;;;2078759;28;20183;-57
2021/09/02 02:03:14;;;;;;;36.33;21.15;;;;;;;;;;2080526;28;20203;-54
2021/09/02 02:04:14;;;;;;;32.60;21.52;;;;;;;;;;2079206;28;20634;-53
2021/09/02 02:05:15;;;;;;;34.88;23.35;;;;;;;;;;2079932;28;20176;-55
2021/09/02 02:06:15;;;;;;;33.70;21.10;;;;;;;;;;2078837;28;20302;-57
2021/09/02 02:07:15;;;;;;;33.53;21.40;;;;;;;;;;2074566;28;20495;-57
2021/09/02 02:08:16;;;;;;;31.58;20.75;;;;;;;;;;2075692;28;20171;-56
2021/09/02 02:09:17;;;;;;;29.60;21.13;;;;;;;;;;2078942;28;22269;-56
2021/09/02 02:10:19;;;;;;;37.53;20.85;;;;;;;;;;2080594;28;20226;-58
2021/09/02 02:11:19;;;;;;;33.45;22.10;;;;;;;;;;2079702;28;20173;-55
2021/09/02 02:12:19;;;;;;;36.92;22.40;;;;;;;;;;2080686;28;20180;-58
2021/09/02 02:13:19;;;;;;;34.03;20.70;;;;;;;;;;2077300;28;20676;-57
2021/09/02 02:14:20;;;;;;;32.63;22.15;;;;;;;;;;2079895;28;20255;-58
2021/09/02 02:15:20;;;;;;;30.77;20.58;;;;;;;;;;2075817;28;20181;-56
2021/09/02 02:16:21;;;;;;;32.13;20.98;;;;;;;;;;2077068;28;20231;-58
2021/09/02 02:17:21;;;;;;;29.13;20.98;;;;;;;;;;2073374;28;20315;-54
2021/09/02 02:18:21;;;;;;;29.75;20.50;;;;;;;;;;2079186;28;20315;-54
2021/09/02 02:19:21;;;;;;;30.85;20.77;;;;;;;;;;2080695;28;20708;-55
2021/09/02 02:20:22;;;;;;;30.95;20.60;;;;;;;;;;2080682;28;20841;-54
2021/09/02 02:21:22;;;;;;;27.85;19.13;;;;;;;;;;2076332;28;20557;-53
2021/09/02 02:22:22;;;;;;;28.63;19.15;;;;;;;;;;2079712;28;20219;-57
2021/09/02 02:23:22;;;;;;;25.20;18.92;;;;;;;;;;2073805;28;20247;-57
2021/09/02 02:24:23;;;;;;;27.08;18.50;;;;;;;;;;2066871;28;20583;-55
2021/09/02 02:25:23;;;;;;;24.45;18.58;;;;;;;;;;2079008;28;20172;-55
2021/09/02 02:26:23;;;;;;;25.25;18.48;;;;;;;;;;2081263;28;20799;-57
2021/09/02 02:27:23;;;;;;;24.45;18.42;;;;;;;;;;2074372;28;20176;-55
2021/09/02 02:28:24;;;;;;;27.73;18.40;;;;;;;;;;2079477;28;20641;-52
2021/09/02 02:29:24;;;;;;;26.95;20.02;;;;;;;;;;2080571;28;20164;-56
2021/09/02 02:30:25;;;;;;;28.17;18.75;;;;;;;;;;2080394;28;20667;-57
2021/09/02 02:31:25;;;;;;;23.45;17.48;;;;;;;;;;2078701;28;20198;-56
2021/09/02 02:32:26;;;;;;;23.38;17.83;;;;;;;;;;2078747;28;20259;-56
2021/09/02 02:33:26;;;;;;;25.38;18.67;;;;;;;;;;2080174;28;20274;-57
2021/09/02 02:34:26;;;;;;;29.10;18.67;;;;;;;;;;2076861;28;20171;-56
2021/09/02 02:35:26;;;;;;;22.88;17.92;;;;;;;;;;2080194;28;20208;-56
2021/09/02 02:36:27;;;;;;;25.60;17.90;;;;;;;;;;2077522;28;20539;-57
2021/09/02 02:37:27;;;;;;;24.60;19.25;;;;;;;;;;2078196;28;20172;-57
2021/09/02 02:38:27;;;;;;;22.95;18.73;;;;;;;;;;2081535;28;20732;-59
2021/09/02 02:39:28;;;;;;;22.77;18.00;;;;;;;;;;2081523;28;20257;-57
2021/09/02 02:40:28;;;;;;;25.10;19.05;;;;;;;;;;2080377;28;20168;-55
2021/09/02 02:41:28;;;;;;;25.85;18.27;;;;;;;;;;2078235;28;20994;-56
2021/09/02 02:42:29;;;;;;;27.60;19.60;;;;;;;;;;2080580;28;20195;-54
2021/09/02 02:43:29;;;;;;;26.60;18.73;;;;;;;;;;2087702;28;20777;-58
2021/09/02 02:44:29;;;;;;;27.98;19.52;;;;;;;;;;2080256;28;20625;-58
2021/09/02 02:45:29;;;;;;;23.73;18.55;;;;;;;;;;2080629;28;20187;-58
2021/09/02 02:46:30;;;;;;;25.05;17.88;;;;;;;;;;2075237;28;20576;-59
2021/09/02 02:47:30;;;;;;;23.83;18.35;;;;;;;;;;2088385;28;20183;-52
2021/09/02 02:48:31;;;;;;;32.22;19.48;;;;;;;;;;2084264;28;20708;-59
2021/09/02 02:49:31;;;;;;;28.10;20.08;;;;;;;;;;2072633;28;20164;-57
2021/09/02 02:50:31;;;;;;;29.10;19.45;;;;;;;;;;2080843;28;20204;-59
2021/09/02 02:51:33;;;;;;;28.20;19.15;;;;;;;;;;2077855;28;20196;-58
2021/09/02 02:52:33;;;;;;;27.85;19.80;;;;;;;;;;2068841;28;20170;-54
2021/09/02 02:53:34;;;;;;;26.40;19.33;;;;;;;;;;2081121;28;20532;-55
2021/09/02 02:54:34;;;;;;;24.88;19.85;;;;;;;;;;2075318;28;20164;-58
2021/09/02 02:55:35;;;;;;;26.55;19.77;;;;;;;;;;2073196;28;20242;-54
2021/09/02 02:56:35;;;;;;;31.80;19.80;;;;;;;;;;2073665;28;20169;-54
2021/09/02 02:57:35;;;;;;;26.65;19.70;;;;;;;;;;2077394;28;20177;-56
2021/09/02 02:58:35;;;;;;;28.55;20.20;;;;;;;;;;2080684;28;20168;-57
2021/09/02 02:59:36;;;;;;;29.25;20.50;;;;;;;;;;2080724;28;20230;-57
2021/09/02 03:00:36;;;;;;;26.65;18.40;;;;;;;;;;2080524;28;20172;-57
2021/09/02 03:01:36;;;;;;;24.63;19.10;;;;;;;;;;2077063;28;20570;-57
2021/09/02 03:02:37;;;;;;;25.77;19.67;;;;;;;;;;2075369;28;20618;-59
2021/09/02 03:03:37;;;;;;;23.90;19.33;;;;;;;;;;2081429;28;20242;-58
2021/09/02 03:04:37;;;;;;;27.27;19.33;;;;;;;;;;2075156;28;20169;-57
2021/09/02 03:05:37;;;;;;;24.50;18.98;;;;;;;;;;2080427;28;20700;-57
2021/09/02 03:06:38;;;;;;;25.08;18.55;;;;;;;;;;2080279;28;20188;-58
2021/09/02 03:07:38;;;;;;;25.73;18.90;;;;;;;;;;2078245;28;20576;-55
2021/09/02 03:08:38;;;;;;;27.70;18.92;;;;;;;;;;2080866;28;20679;-57
2021/09/02 03:09:39;;;;;;;26.23;19.23;;;;;;;;;;2080902;28;20832;-58
2021/09/02 03:10:39;;;;;;;27.55;18.63;;;;;;;;;;2080990;28;20171;-58
2021/09/02 03:11:39;;;;;;;31.10;19.98;;;;;;;;;;2080110;28;20204;-56
2021/09/02 03:12:40;;;;;;;30.20;20.38;;;;;;;;;;2080478;28;20301;-55
2021/09/02 03:13:40;;;;;;;26.77;19.98;;;;;;;;;;2081125;28;20222;-55
2021/09/02 03:14:41;;;;;;;31.85;21.55;;;;;;;;;;2080652;28;20176;-52
2021/09/02 03:15:41;;;;;;;30.33;21.80;;;;;;;;;;2080806;28;20261;-54
2021/09/02 03:16:41;;;;;;;33.78;21.67;;;;;;;;;;2077839;28;20169;-56
2021/09/02 03:17:41;;;;;;;33.13;22.00;;;;;;;;;;2076503;28;20169;-57
2021/09/02 03:18:42;;;;;;;33.13;22.98;;;;;;;;;;2079463;28;20183;-58
2021/09/02 03:19:42;;;;;;;31.73;21.23;;;;;;;;;;2073962;28;20247;-56
2021/09/02 03:20:42;;;;;;;31.42;19.83;;;;;;;;;;2075338;28;20184;-57
2021/09/02 03:21:42;;;;;;;31.83;22.08;;;;;;;;;;2083903;28;20176;-56
2021/09/02 03:22:43;;;;;;;29.85;22.00;;;;;;;;;;2075987;28;20177;-53
2021/09/02 03:23:43;;;;;;;28.75;20.98;;;;;;;;;;2078210;28;20211;-54
2021/09/02 03:24:43;;;;;;;30.98;21.45;;;;;;;;;;2080204;28;20168;-52
2021/09/02 03:25:44;;;;;;;32.03;23.45;;;;;;;;;;2068378;28;20201;-58
2021/09/02 03:26:44;;;;;;;33.88;23.98;;;;;;;;;;2072988;28;20565;-56
2021/09/02 03:27:44;;;;;;;29.25;20.48;;;;;;;;;;2080541;28;20172;-56
2021/09/02 03:28:45;;;;;;;26.25;18.77;;;;;;;;;;2075253;28;20185;-56
2021/09/02 03:29:45;;;;;;;24.27;18.33;;;;;;;;;;2071564;28;20605;-54
2021/09/02 03:30:45;;;;;;;25.83;17.75;;;;;;;;;;2071103;28;20173;-56
2021/09/02 03:31:45;;;;;;;21.23;17.48;;;;;;;;;;2076949;28;20255;-58
2021/09/02 03:32:46;;;;;;;24.40;17.73;;;;;;;;;;2081011;28;20590;-58
2021/09/02 03:33:46;;;;;;;24.75;18.63;;;;;;;;;;2081013;28;20172;-56
2021/09/02 03:34:46;;;;;;;27.30;18.10;;;;;;;;;;2075167;28;20185;-54
2021/09/02 03:35:46;;;;;;;27.60;19.48;;;;;;;;;;2071536;28;20193;-54
2021/09/02 03:36:47;;;;;;;24.67;18.25;;;;;;;;;;2068898;28;20174;-56
2021/09/02 03:37:47;;;;;;;23.83;17.92;;;;;;;;;;2077195;28;20197;-56
2021/09/02 03:38:47;;;;;;;23.10;18.67;;;;;;;;;;2072836;28;20181;-58
2021/09/02 03:39:48;;;;;;;25.48;17.45;;;;;;;;;;2074014;28;20485;-54
2021/09/02 03:40:48;;;;;;;27.30;18.75;;;;;;;;;;2071792;28;20231;-56
2021/09/02 03:41:48;;;;;;;26.65;18.42;;;;;;;;;;2069676;28;20240;-54
2021/09/02 03:42:48;;;;;;;22.55;17.92;;;;;;;;;;2075155;28;20193;-55
2021/09/02 03:43:49;;;;;;;27.10;18.83;;;;;;;;;;2080340;28;20214;-58
2021/09/02 03:44:49;;;;;;;28.73;17.42;;;;;;;;;;2079610;28;20164;-57
2021/09/02 03:45:49;;;;;;;25.60;19.33;;;;;;;;;;2078393;28;20188;-56
2021/09/02 03:46:50;;;;;;;25.35;18.45;;;;;;;;;;2066283;28;20703;-53
2021/09/02 03:47:50;;;;;;;22.90;17.95;;;;;;;;;;2077894;28;20281;-54
2021/09/02 03:48:50;;;;;;;29.13;19.85;;;;;;;;;;2080121;28;20179;-54
2021/09/02 03:49:50;;;;;;;24.70;18.25;;;;;;;;;;2080222;28;20312;-53
2021/09/02 03:50:51;;;;;;;28.75;20.08;;;;;;;;;;2080971;28;20226;-56
2021/09/02 03:51:51;;;;;;;26.67;19.65;;;;;;;;;;2080277;28;20168;-56
2021/09/02 03:52:51;;;;;;;30.30;18.77;;;;;;;;;;2080059;28;20207;-55
2021/09/02 03:53:51;;;;;;;28.70;19.42;;;;;;;;;;2076968;28;20172;-59
2021/09/02 03:54:52;;;;;;;28.25;18.02;;;;;;;;;;2081736;28;20644;-57
2021/09/02 03:55:52;;;;;;;26.60;19.23;;;;;;;;;;2077085;28;20165;-57
2021/09/02 03:56:52;;;;;;;28.30;19.27;;;;;;;;;;2071576;28;20710;-56
2021/09/02 03:57:52;;;;;;;29.33;19.05;;;;;;;;;;2081905;28;20259;-58
2021/09/02 03:58:53;;;;;;;27.98;19.65;;;;;;;;;;2081739;28;20168;-54
2021/09/02 03:59:53;;;;;;;28.92;19.15;;;;;;;;;;2081140;28;20211;-56
2021/09/02 04:00:53;;;;;;;34.03;21.58;;;;;;;;;;2068230;28;20178;-53
2021/09/02 04:01:53;;;;;;;34.30;21.25;;;;;;;;;;2072542;28;20256;-56
2021/09/02 04:02:53;;;;;;;32.60;21.60;;;;;;;;;;2081825;28;20230;-56
2021/09/02 04:03:54;;;;;;;34.03;21.45;;;;;;;;;;2081798;28;20164;-55
2021/09/02 04:04:54;;;;;;;29.73;20.48;;;;;;;;;;2080215;28;20167;-55
2021/09/02 04:05:54;;;;;;;29.13;19.90;;;;;;;;;;2082453;28;20230;-57
2021/09/02 04:06:55;;;;;;;34.60;21.48;;;;;;;;;;2076570;28;20544;-54
2021/09/02 04:07:55;;;;;;;34.50;20.33;;;;;;;;;;2073374;28;20704;-54
2021/09/02 04:08:55;;;;;;;25.15;19.30;;;;;;;;;;2081638;28;20188;-53
2021/09/02 04:09:55;;;;;;;29.88;20.13;;;;;;;;;;2081540;28;20165;-56
2021/09/02 04:10:56;;;;;;;30.48;19.90;;;;;;;;;;2078429;28;20280;-57
2021/09/02 04:11:56;;;;;;;26.73;20.38;;;;;;;;;;2080294;28;20200;-58
2021/09/02 04:12:56;;;;;;;24.20;18.23;;;;;;;;;;2081760;28;20214;-56
2021/09/02 04:13:56;;;;;;;28.98;19.40;;;;;;;;;;2078938;28;20251;-53
2021/09/02 04:14:57;;;;;;;32.05;21.33;;;;;;;;;;2081607;28;20265;-55
2021/09/02 04:15:57;;;;;;;31.02;21.17;;;;;;;;;;2082526;28;20180;-58
2021/09/02 04:16:57;;;;;;;29.40;20.85;;;;;;;;;;2078489;28;20216;-57
2021/09/02 04:17:57;;;;;;;28.90;20.35;;;;;;;;;;2072656;28;20177;-55
2021/09/02 04:18:58;;;;;;;28.67;20.48;;;;;;;;;;2072333;28;20595;-57
2021/09/02 04:19:58;;;;;;;28.63;19.73;;;;;;;;;;2077219;28;20180;-57
2021/09/02 04:20:59;;;;;;;27.90;19.60;;;;;;;;;;2081865;28;20180;-57
2021/09/02 04:21:59;;;;;;;32.50;21.75;;;;;;;;;;2079662;28;20211;-55
2021/09/02 04:22:59;;;;;;;30.77;20.10;;;;;;;;;;2078095;28;20204;-58
2021/09/02 04:24:00;;;;;;;33.60;22.50;;;;;;;;;;2081780;28;20286;-57
2021/09/02 04:25:00;;;;;;;30.85;21.45;;;;;;;;;;2078630;28;20656;-55
2021/09/02 04:26:00;;;;;;;30.23;21.35;;;;;;;;;;2077594;28;20171;-54
2021/09/02 04:27:00;;;;;;;34.20;21.90;;;;;;;;;;2082383;28;20176;-55
2021/09/02 04:28:01;;;;;;;32.63;22.08;;;;;;;;;;2079581;28;20636;-55
2021/09/02 04:29:01;;;;;;;32.17;21.10;;;;;;;;;;2078198;28;20229;-56
2021/09/02 04:30:01;;;;;;;28.38;19.15;;;;;;;;;;2080817;28;20187;-57
2021/09/02 04:31:01;;;;;;;31.50;21.40;;;;;;;;;;2080942;28;20314;-56
2021/09/02 04:32:02;;;;;;;29.92;20.60;;;;;;;;;;2078718;28;20183;-56
2021/09/02 04:33:02;;;;;;;31.67;21.35;;;;;;;;;;2079301;28;20239;-58
2021/09/02 04:34:02;;;;;;;30.65;21.48;;;;;;;;;;2078861;28;20726;-54
2021/09/02 04:35:03;;;;;;;32.50;21.63;;;;;;;;;;2078810;28;20176;-57
2021/09/02 04:36:03;;;;;;;32.63;20.55;;;;;;;;;;2079574;28;20203;-54
2021/09/02 04:37:04;;;;;;;29.20;20.80;;;;;;;;;;2074372;28;20204;-54
2021/09/02 04:38:05;;;;;;;32.60;21.88;;;;;;;;;;2077964;28;20168;-55
2021/09/02 04:39:05;;;;;;;29.92;20.48;;;;;;;;;;2081923;28;20608;-57
2021/09/02 04:40:06;;;;;;;29.20;19.98;;;;;;;;;;2076989;28;20196;-58
2021/09/02 04:41:08;;;;;;;31.45;20.75;;;;;;;;;;2080583;28;20184;-57
2021/09/02 04:42:10;;;;;;;29.35;20.02;;;;;;;;;;2081076;28;20896;-53
2021/09/02 04:43:10;;;;;;;31.55;19.85;;;;;;;;;;2080988;28;20207;-55
2021/09/02 04:44:10;;;;;;;36.03;21.80;;;;;;;;;;2081529;28;20234;-55
2021/09/02 04:45:11;;;;;;;34.65;20.98;;;;;;;;;;2080920;28;20156;-55
2021/09/02 04:46:11;;;;;;;31.90;20.95;;;;;;;;;;2070050;28;20182;-55
2021/09/02 04:47:12;;;;;;;33.13;21.33;;;;;;;;;;2078036;28;20169;-57
2021/09/02 04:48:13;;;;;;;32.28;20.80;;;;;;;;;;2080245;28;20187;-57
2021/09/02 04:49:13;;;;;;;29.17;21.20;;;;;;;;;;2075369;28;20203;-55
2021/09/02 04:50:14;;;;;;;34.45;21.27;;;;;;;;;;2077868;28;20164;-56
2021/09/02 04:51:14;;;;;;;33.90;21.30;;;;;;;;;;2080318;28;20173;-54
2021/09/02 04:52:14;;;;;;;32.50;22.45;;;;;;;;;;2078436;28;20180;-57
2021/09/02 04:53:15;;;;;;;34.20;22.95;;;;;;;;;;2084029;28;20195;-54
2021/09/02 04:54:16;;;;;;;32.50;21.98;;;;;;;;;;2078816;28;20582;-53
2021/09/02 04:55:16;;;;;;;32.85;21.52;;;;;;;;;;2069329;28;20218;-56
2021/09/02 04:56:16;;;;;;;34.65;22.23;;;;;;;;;;2080922;28;20791;-53
2021/09/02 04:57:19;;;;;;;36.78;22.58;;;;;;;;;;2080580;28;20184;-57
2021/09/02 04:58:20;;;;;;;32.58;23.10;;;;;;;;;;2079767;28;20592;-57
2021/09/02 04:59:20;;;;;;;37.13;22.20;;;;;;;;;;2080964;28;20191;-56
2021/09/02 05:00:20;;;;;;;31.40;22.23;;;;;;;;;;2080321;28;20188;-54
2021/09/02 05:01:20;;;;;;;36.00;21.67;;;;;;;;;;2078334;28;20180;-57
2021/09/02 05:02:21;;;;;;;31.10;21.45;;;;;;;;;;2078396;28;20203;-53
2021/09/02 05:03:21;;;;;;;32.58;21.02;;;;;;;;;;2070633;28;20334;-55
2021/09/02 05:04:21;;;;;;;31.65;21.42;;;;;;;;;;2084147;28;20208;-58
2021/09/02 05:05:22;;;;;;;37.40;23.70;;;;;;;;;;2081353;28;20207;-53
2021/09/02 05:06:22;;;;;;;37.20;22.88;;;;;;;;;;2079889;28;20168;-58
2021/09/02 05:08:24;;;;;;;41.00;27.67;;;;;;;;;;2064636;28;20232;-53
2021/09/02 05:09:25;;;;;;;43.33;29.02;;;;;;;;;;2055905;28;20659;-49
2021/09/02 05:10:25;;;;;;;43.70;28.67;;;;;;;;;;2057617;28;20198;-49
2021/09/02 05:11:25;;;;;;;40.38;27.40;;;;;;;;;;2064876;28;20165;-48
2021/09/02 05:12:26;;;;;;;32.67;23.17;;;;;;;;;;2063085;28;20185;-48
2021/09/02 05:13:26;;;;;;;35.15;23.00;;;;;;;;;;2072607;28;20172;-48
2021/09/02 05:14:26;;;;;;;32.58;21.73;;;;;;;;;;2072835;28;20186;-48
2021/09/02 05:15:27;;;;;;;30.63;20.52;;;;;;;;;;2073265;28;20272;-57
2021/09/02 05:16:27;;;;;;;36.85;21.58;;;;;;;;;;2050092;28;20179;-51
2021/09/02 05:17:27;;;;;;;31.42;21.00;;;;;;;;;;2053313;28;20608;-49
2021/09/02 05:18:27;;;;;;;32.10;20.92;;;;;;;;;;2071861;28;20239;-60
2021/09/02 05:19:27;;;;;;;35.70;21.63;;;;;;;;;;2069417;28;20828;-50
2021/09/02 05:20:28;;;;;;;32.97;23.70;;;;;;;;;;2074454;28;20546;-54
2021/09/02 05:21:28;;;;;;;33.08;21.90;;;;;;;;;;2076072;28;20560;-47
2021/09/02 05:22:28;;;;;;;34.75;20.80;;;;;;;;;;2075558;28;20264;-49
2021/09/02 05:23:28;;;;;;;30.55;19.77;;;;;;;;;;2072981;28;20204;-52
2021/09/02 05:24:29;;;;;;;32.80;23.33;;;;;;;;;;2071541;28;20205;-47
2021/09/02 05:25:29;;;;;;;35.72;21.30;;;;;;;;;;2068429;28;20713;-50
2021/09/02 05:26:30;;;;;;;38.95;22.23;;;;;;;;;;2074765;28;20553;-51
2021/09/02 05:27:30;;;;;;;31.77;22.70;;;;;;;;;;2064741;28;20185;-48
2021/09/02 05:28:30;;;;;;;31.52;23.15;;;;;;;;;;2064906;28;20170;-51
2021/09/02 05:29:30;;;;;;;33.67;21.92;;;;;;;;;;2069249;28;20684;-51
2021/09/02 05:30:31;;;;;;;28.50;19.88;;;;;;;;;;2074322;28;20611;-48
2021/09/02 05:31:31;;;;;;;32.13;20.45;;;;;;;;;;2073339;28;20172;-48
2021/09/02 05:32:31;;;;;;;31.17;21.38;;;;;;;;;;2074547;28;20199;-52
2021/09/02 05:33:32;;;;;;;28.80;19.63;;;;;;;;;;2071103;28;20855;-50
2021/09/02 05:34:32;;;;;;;33.28;22.30;;;;;;;;;;2075583;28;20258;-51
2021/09/02 05:35:32;;;;;;;27.10;20.10;;;;;;;;;;2072806;28;20188;-49
2021/09/02 05:36:32;;;;;;;31.75;21.27;;;;;;;;;;2073888;28;20175;-51
2021/09/02 05:37:33;;;;;;;31.05;20.60;;;;;;;;;;2069857;28;20189;-51
2021/09/02 05:38:33;;;;;;;31.52;20.65;;;;;;;;;;2070551;28;20172;-48
2021/09/02 05:39:33;;;;;;;31.70;21.08;;;;;;;;;;2070591;28;20723;-49
2021/09/02 05:40:33;;;;;;;39.35;21.88;;;;;;;;;;2071602;28;20260;-48
2021/09/02 05:41:34;;;;;;;29.35;20.30;;;;;;;;;;2068387;28;20201;-51
2021/09/02 05:42:34;;;;;;;33.60;20.77;;;;;;;;;;2075066;28;20176;-49
2021/09/02 05:43:34;;;;;;;27.00;20.60;;;;;;;;;;2072181;28;20180;-51
2021/09/02 05:44:34;;;;;;;34.45;21.50;;;;;;;;;;2072164;28;20394;-49
2021/09/02 05:45:35;;;;;;;30.38;20.55;;;;;;;;;;2069982;28;20173;-49
2021/09/02 05:46:35;;;;;;;30.08;19.05;;;;;;;;;;2073021;28;20177;-49
2021/09/02 05:47:35;;;;;;;27.27;20.77;;;;;;;;;;2070972;28;20193;-48
2021/09/02 05:48:35;;;;;;;29.05;20.70;;;;;;;;;;2070290;28;20216;-51
2021/09/02 05:49:36;;;;;;;30.83;21.35;;;;;;;;;;2069363;28;20193;-48
2021/09/02 05:50:36;;;;;;;34.45;21.65;;;;;;;;;;2072200;28;20184;-48
2021/09/02 05:51:36;;;;;;;28.75;20.30;;;;;;;;;;2069766;28;20185;-50
2021/09/02 05:52:36;;;;;;;32.47;20.75;;;;;;;;;;2071825;28;20685;-52